Terminal Aerodrome Forecast
Issued by NWS Charleston, WV

Current Version | Previous Version | Text Only | Print | Product List | Glossary Off
Versions: 1 2 3 4 5 6 7 8 9 10 11 12 13 14 15 16 17 18 19 20 21 22 23 24

000
FTUS41 KRLX 251700 RRA
TAFPKB
TAF
KPKB 251743Z 2518/2618 07007G12KT P6SM SHRA OVC060
     FM252300 03008G14KT P6SM SHRA OVC025
     FM260200 02007KT P6SM OVC020
     FM260900 02007KT P6SM BKN045=

USA.gov is the U.S. government's official web portal to all federal, state and local government web resources and services.